Kathwood, South Carolina
Current Conditions -  °F | °C
As of 4:56 AM on Friday 31 Oct 2014 (Local Time) from KCAE Reporting Station
Clear Clear  
Wind Chill: 44°   Ceiling: Unl
Heat Index: 44°   Visibility: 10mi
Dew Point: 40°   Wind: 0mph
Humidity: 85%   Direction: NA
Pressure: 29.91"   Gusts: NA
Location:  33.9973°N, 81.0998°W
Report Text: KCAE 310856Z 00000KT 10SM CLR 07/04 A2991 RMK AO2 SLP129 T00670044 56007
Loading
Personal Weather Stations






























Interactive Weather Map
Tropical Storm Tracking
New forecast layout! Learn more

10-Day Weather Forecast

Advertisements
Track Severe Weather on mobile